createdAt,value
2023-01-11T00:01:17.037Z,89.06
2023-01-11T00:03:47.550Z,98.24
2023-01-11T00:06:18.965Z,94.27
2023-01-11T00:08:49.353Z,91.14
2023-01-11T00:11:21.066Z,94.93
2023-01-11T00:13:51.534Z,92.54
2023-01-11T00:16:22.023Z,95.45
2023-01-11T00:18:52.445Z,100.00
2023-01-11T00:21:22.882Z,100.00
2023-01-11T00:23:53.371Z,99.12
2023-01-11T00:26:23.797Z,100.00
2023-01-11T00:28:55.093Z,100.00
2023-01-11T00:31:26.597Z,100.00
2023-01-11T00:33:59.115Z,98.48
2023-01-11T00:36:29.596Z,98.66
2023-01-11T00:38:59.890Z,100.00
2023-01-11T00:41:47.870Z,100.00
2023-01-11T00:44:39.037Z,100.00
2023-01-11T00:47:30.013Z,95.84
2023-01-11T00:50:00.407Z,100.00
2023-01-11T00:52:30.867Z,100.00
2023-01-11T00:55:01.310Z,100.00
2023-01-11T00:57:31.784Z,100.00
2023-01-11T01:00:02.285Z,100.00
2023-01-11T01:02:34.666Z,95.73
2023-01-11T01:05:05.286Z,100.00
2023-01-11T01:07:37.706Z,100.00
2023-01-11T01:10:09.962Z,100.00
2023-01-11T01:12:58.001Z,91.00
2023-01-11T01:15:28.552Z,96.35
2023-01-11T01:17:58.973Z,100.00
2023-01-11T01:20:29.789Z,98.27
2023-01-11T01:23:00.848Z,92.09
2023-01-11T01:25:31.296Z,93.09
2023-01-11T01:28:01.716Z,97.44
2023-01-11T01:30:33.851Z,91.65
2023-01-11T01:33:04.191Z,91.38
2023-01-11T01:35:35.593Z,98.18
2023-01-11T01:38:05.986Z,99.02
2023-01-11T01:40:39.268Z,91.61
2023-01-11T01:43:15.395Z,86.17
2023-01-11T01:45:45.929Z,83.59
2023-01-11T01:48:19.399Z,86.08
2023-01-11T01:50:56.658Z,81.24
2023-01-11T01:53:34.664Z,88.63
2023-01-11T01:56:10.871Z,93.29
2023-01-11T01:58:44.199Z,90.28
2023-01-11T02:01:34.343Z,100.00
2023-01-11T02:04:07.745Z,93.23
2023-01-11T02:06:38.841Z,91.19
2023-01-11T02:09:15.102Z,94.37
2023-01-11T02:11:45.794Z,97.80
2023-01-11T02:14:20.407Z,93.09
2023-01-11T02:16:51.059Z,99.39
2023-01-11T02:19:30.176Z,87.78
2023-01-11T02:22:25.630Z,93.18
2023-01-11T02:25:19.257Z,88.03
2023-01-11T02:27:52.558Z,95.69
2023-01-11T02:30:31.818Z,81.09
2023-01-11T02:33:33.851Z,97.50
2023-01-11T02:36:16.589Z,95.10
2023-01-11T02:39:06.703Z,97.87
2023-01-11T02:42:03.951Z,90.40
2023-01-11T02:48:01.380Z,87.35
2023-01-11T02:50:45.245Z,87.03
2023-01-11T02:53:27.652Z,84.08
2023-01-11T02:56:04.806Z,85.69
2023-01-11T02:58:40.976Z,82.23
2023-01-11T03:01:14.535Z,80.40
2023-01-11T03:03:47.059Z,81.76
2023-01-11T03:06:27.864Z,78.54
2023-01-11T03:09:20.956Z,71.60
2023-01-11T03:12:25.301Z,71.94
2023-01-11T03:15:05.997Z,74.21
2023-01-11T03:17:58.243Z,76.17
2023-01-11T03:20:37.529Z,71.26
2023-01-11T03:23:47.173Z,69.75
2023-01-11T03:26:22.694Z,66.82
2023-01-11T03:29:01.844Z,66.16
2023-01-11T03:31:47.800Z,70.79
2023-01-11T03:34:32.865Z,67.46
2023-01-11T03:37:07.185Z,65.28
2023-01-11T03:39:45.902Z,64.38
2023-01-11T03:42:21.709Z,65.36
2023-01-11T03:44:55.914Z,66.10
2023-01-11T03:47:32.123Z,68.65
2023-01-11T03:50:07.410Z,68.86
2023-01-11T03:52:42.748Z,63.71
2023-01-11T03:55:18.476Z,62.94
2023-01-11T04:00:43.591Z,66.31
2023-01-11T04:03:16.171Z,64.61
2023-01-11T04:05:50.027Z,66.52
2023-01-11T04:08:22.587Z,63.73
2023-01-11T04:10:57.422Z,62.37
2023-01-11T04:13:29.449Z,62.04
2023-01-11T04:16:01.031Z,64.21
2023-01-11T04:18:33.457Z,60.84
2023-01-11T04:21:04.285Z,61.98
2023-01-11T04:23:36.396Z,60.33
2023-01-11T04:26:11.700Z,63.34
2023-01-11T04:28:44.632Z,67.85
2023-01-11T04:31:15.654Z,68.79
2023-01-11T04:33:48.916Z,68.44
2023-01-11T04:36:21.156Z,63.84
2023-01-11T04:38:54.249Z,60.44
2023-01-11T04:41:43.456Z,59.87
2023-01-11T04:44:15.846Z,61.72
2023-01-11T04:46:47.472Z,61.90
2023-01-11T04:49:19.913Z,62.74
2023-01-11T04:54:21.177Z,62.00
2023-01-11T04:56:51.613Z,59.37
2023-01-11T04:59:23.053Z,58.91
2023-01-11T05:01:53.546Z,57.03
2023-01-11T05:04:24.153Z,56.19
2023-01-11T05:06:54.628Z,58.71
2023-01-11T05:09:25.112Z,57.84
2023-01-11T05:11:55.500Z,57.03
2023-01-11T05:14:25.858Z,57.30
2023-01-11T05:16:56.262Z,57.15
2023-01-11T05:19:27.665Z,56.62
2023-01-11T05:21:58.018Z,58.05
2023-01-11T05:24:29.712Z,57.16
2023-01-11T05:27:01.114Z,59.34
2023-01-11T05:29:31.615Z,60.55
2023-01-11T05:32:02.144Z,61.64
2023-01-11T05:34:32.611Z,61.54
2023-01-11T05:37:03.024Z,60.87
2023-01-11T05:39:33.509Z,60.75
2023-01-11T05:42:03.893Z,60.30
2023-01-11T05:44:52.162Z,61.53
2023-01-11T05:47:22.514Z,62.61
2023-01-11T05:49:53.963Z,60.87
2023-01-11T05:52:24.321Z,62.54
2023-01-11T05:54:54.654Z,61.81
2023-01-11T05:57:25.065Z,60.27
2023-01-11T05:59:56.417Z,62.11
2023-01-11T06:02:26.981Z,61.47
2023-01-11T06:04:57.461Z,61.06
2023-01-11T06:07:27.799Z,60.23
2023-01-11T06:09:58.208Z,62.20
2023-01-11T06:12:28.598Z,67.28
2023-01-11T06:14:59.148Z,65.74
2023-01-11T06:17:29.632Z,63.88
2023-01-11T06:20:00.155Z,63.13
2023-01-11T06:22:30.534Z,64.82
2023-01-11T06:25:00.997Z,64.02
2023-01-11T06:27:31.556Z,63.80
2023-01-11T06:30:02.026Z,63.00
2023-01-11T06:32:32.375Z,62.25
2023-01-11T06:35:02.788Z,63.36
2023-01-11T06:37:33.255Z,62.65
2023-01-11T06:40:03.675Z,63.58
2023-01-11T06:42:34.062Z,62.28
2023-01-11T06:45:04.684Z,61.47
2023-01-11T06:47:35.138Z,60.20
2023-01-11T06:50:07.039Z,62.44
2023-01-11T06:52:37.539Z,63.31
2023-01-11T06:55:08.597Z,62.59
2023-01-11T06:57:40.024Z,62.93
2023-01-11T07:00:11.332Z,63.26
2023-01-11T07:02:41.929Z,63.03
2023-01-11T07:05:13.007Z,64.93
2023-01-11T07:07:44.163Z,61.13
2023-01-11T07:10:17.137Z,61.41
2023-01-11T07:12:47.604Z,61.14
2023-01-11T07:15:18.180Z,58.74
2023-01-11T07:17:49.667Z,63.27
2023-01-11T07:20:20.062Z,62.95
2023-01-11T07:22:50.485Z,59.51
2023-01-11T07:25:20.955Z,61.33
2023-01-11T07:27:52.802Z,59.29
2023-01-11T07:30:24.836Z,60.48
2023-01-11T07:32:55.740Z,59.97
2023-01-11T07:35:28.169Z,60.04
2023-01-11T07:37:58.892Z,60.38
2023-01-11T07:40:30.361Z,61.72
2023-01-11T07:43:19.460Z,60.52
2023-01-11T07:45:54.638Z,60.23
2023-01-11T07:48:27.530Z,59.52
2023-01-11T07:51:00.693Z,58.55
2023-01-11T07:53:32.150Z,58.41
2023-01-11T07:58:32.819Z,60.25
2023-01-11T08:01:03.387Z,59.28
2023-01-11T08:03:34.121Z,59.44
2023-01-11T08:06:04.654Z,58.05
2023-01-11T08:08:35.215Z,60.48
2023-01-11T08:11:23.780Z,59.18
2023-01-11T08:14:12.415Z,57.46
2023-01-11T08:16:42.930Z,59.41
2023-01-11T08:19:13.527Z,59.09
2023-01-11T08:21:44.815Z,58.51
2023-01-11T08:24:15.375Z,57.80
2023-01-11T08:26:46.113Z,58.31
2023-01-11T08:29:16.647Z,58.17
2023-01-11T08:31:48.374Z,56.16
2023-01-11T08:34:19.028Z,56.42
2023-01-11T08:36:49.568Z,55.00
2023-01-11T08:39:20.103Z,55.02
2023-01-11T08:41:50.636Z,56.22
2023-01-11T08:44:33.256Z,54.01
2023-01-11T08:46:53.849Z,53.89
2023-01-11T08:49:24.436Z,54.39
2023-01-11T08:51:55.002Z,53.93
2023-01-11T08:54:26.105Z,54.58
2023-01-11T08:56:56.984Z,54.45
2023-01-11T08:59:27.572Z,53.54
2023-01-11T09:01:58.135Z,54.07
2023-01-11T09:04:28.746Z,51.88
2023-01-11T09:06:59.819Z,52.74
2023-01-11T09:09:32.273Z,52.27
2023-01-11T09:12:05.632Z,53.33
2023-01-11T09:14:35.409Z,52.70
2023-01-11T09:17:07.021Z,53.11
2023-01-11T09:19:37.923Z,53.31
2023-01-11T09:22:09.564Z,51.78
2023-01-11T09:24:41.154Z,52.35
2023-01-11T09:27:12.041Z,52.14
2023-01-11T09:29:42.612Z,52.87
2023-01-11T09:32:13.184Z,51.61
2023-01-11T09:34:46.671Z,52.17
2023-01-11T09:37:17.795Z,51.55
2023-01-11T09:39:49.468Z,52.74
2023-01-11T09:42:38.519Z,50.29
2023-01-11T09:45:17.607Z,51.89
2023-01-11T09:47:58.594Z,51.87
2023-01-11T09:50:34.251Z,51.07
2023-01-11T09:53:09.433Z,51.81
2023-01-11T09:55:42.884Z,51.21
2023-01-11T09:58:23.584Z,50.78
2023-01-11T10:01:01.208Z,51.16
2023-01-11T10:03:52.692Z,49.54
2023-01-11T10:06:32.013Z,50.60
2023-01-11T10:18:31.013Z,49.94
2023-01-11T10:18:40.288Z,50.78
2023-01-11T10:20:39.003Z,52.24
2023-01-11T10:23:25.921Z,50.83
2023-01-11T10:25:59.414Z,50.50
2023-01-11T10:28:37.079Z,49.32
2023-01-11T10:31:15.116Z,50.07
2023-01-11T10:34:05.564Z,51.95
2023-01-11T10:37:21.049Z,50.27
2023-01-11T10:40:27.354Z,50.28
2023-01-11T10:43:14.254Z,50.20
2023-01-11T10:45:51.336Z,50.16
2023-01-11T10:48:33.608Z,51.87
2023-01-11T10:51:32.457Z,49.83
2023-01-11T10:54:22.272Z,50.59
2023-01-11T10:57:18.818Z,52.42
2023-01-11T11:00:23.062Z,51.86
2023-01-11T11:03:29.813Z,51.65
2023-01-11T11:06:12.288Z,51.09
2023-01-11T11:09:05.115Z,49.64
2023-01-11T11:11:47.271Z,49.73
2023-01-11T11:14:32.890Z,48.54
2023-01-11T11:17:24.138Z,47.90
2023-01-11T11:19:55.935Z,48.78
2023-01-11T11:22:27.264Z,48.84
2023-01-11T11:25:04.944Z,49.10
2023-01-11T11:27:40.477Z,48.36
2023-01-11T11:30:15.116Z,50.21
2023-01-11T11:32:50.339Z,49.79
2023-01-11T11:35:45.732Z,50.47
2023-01-11T11:38:24.643Z,50.72
2023-01-11T11:41:07.198Z,50.81
2023-01-11T11:43:40.092Z,49.82
2023-01-11T11:46:20.184Z,50.27
2023-01-11T11:49:11.652Z,50.36
2023-01-11T11:51:44.501Z,50.97
2023-01-11T11:54:29.933Z,50.03
2023-01-11T11:57:03.371Z,50.47
2023-01-11T11:59:34.059Z,50.47
2023-01-11T12:02:07.098Z,51.88
2023-01-11T12:04:43.592Z,51.05
2023-01-11T12:07:23.009Z,50.83
2023-01-11T12:10:08.783Z,50.33
2023-01-11T12:12:57.028Z,49.32
2023-01-11T12:15:35.057Z,49.51
2023-01-11T12:18:29.035Z,50.28
2023-01-11T12:21:10.650Z,51.92
2023-01-11T12:23:41.220Z,51.43
2023-01-11T12:26:20.437Z,51.89
2023-01-11T12:29:08.890Z,50.24
2023-01-11T12:31:57.379Z,48.80
2023-01-11T12:34:48.457Z,49.93
2023-01-11T12:37:36.515Z,49.92
2023-01-11T12:40:21.581Z,50.77
2023-01-11T12:43:04.721Z,50.28
2023-01-11T12:45:43.782Z,49.59
2023-01-11T12:48:35.609Z,49.32
2023-01-11T12:51:26.835Z,49.89
2023-01-11T12:54:09.008Z,49.72
2023-01-11T12:57:00.548Z,50.29
2023-01-11T12:59:46.018Z,50.00
2023-01-11T13:02:37.550Z,49.90
2023-01-11T13:05:35.046Z,49.43
2023-01-11T13:08:27.542Z,49.98
2023-01-11T13:11:13.029Z,50.29
2023-01-11T13:13:58.112Z,50.67
2023-01-11T13:16:34.414Z,50.87
2023-01-11T13:19:07.973Z,50.75
2023-01-11T13:21:42.988Z,51.29
2023-01-11T13:24:16.438Z,51.37
2023-01-11T13:26:50.773Z,50.88
2023-01-11T13:29:27.047Z,52.00
2023-01-11T13:32:01.705Z,51.10
2023-01-11T13:34:48.091Z,51.04
2023-01-11T13:37:36.627Z,51.72
2023-01-11T13:40:27.724Z,52.06
2023-01-11T13:43:01.169Z,50.30
2023-01-11T13:45:38.092Z,53.12
2023-01-11T13:48:21.218Z,51.81
2023-01-11T13:51:24.048Z,53.77
2023-01-11T13:54:12.500Z,52.25
2023-01-11T13:56:45.346Z,53.16
2023-01-11T13:59:30.371Z,52.23
2023-01-11T14:02:21.637Z,52.56
2023-01-11T14:08:02.164Z,52.65
2023-01-11T14:10:44.510Z,52.04
2023-01-11T14:14:00.325Z,52.35
2023-01-11T14:16:39.642Z,52.42
2023-01-11T14:19:33.895Z,50.63
2023-01-11T14:22:17.308Z,53.04
2023-01-11T14:28:07.530Z,52.57
2023-01-11T14:30:40.963Z,51.49
2023-01-11T14:33:47.958Z,52.11
2023-01-11T14:36:44.368Z,51.86
2023-01-11T14:39:49.651Z,52.13
2023-01-11T14:42:58.267Z,51.50
2023-01-11T14:45:43.768Z,51.07
2023-01-11T14:48:26.616Z,51.91
2023-01-11T14:51:32.672Z,51.30
2023-01-11T14:54:00.149Z,52.20
2023-01-11T14:56:45.041Z,51.04
2023-01-11T14:59:36.415Z,51.80
2023-01-11T15:02:10.873Z,51.47
2023-01-11T15:04:56.721Z,51.86
2023-01-11T15:07:36.773Z,51.88
2023-01-11T15:10:26.582Z,51.96
2023-01-11T15:12:59.416Z,52.23
2023-01-11T15:15:32.725Z,51.28
2023-01-11T15:18:18.476Z,50.98
2023-01-11T15:20:55.812Z,54.17
2023-01-11T15:23:27.745Z,51.77
2023-01-11T15:26:06.944Z,52.18
2023-01-11T15:28:52.594Z,52.00
2023-01-11T15:31:41.024Z,52.69
2023-01-11T15:34:27.337Z,52.98
2023-01-11T15:37:07.699Z,52.86
2023-01-11T15:39:59.264Z,53.75
2023-01-11T15:42:55.997Z,52.91
2023-01-11T15:45:30.516Z,52.83
2023-01-11T15:48:26.186Z,51.98
2023-01-11T15:51:14.357Z,51.04
2023-01-11T15:53:53.509Z,53.61
2023-01-11T15:56:46.209Z,52.64
2023-01-11T15:59:44.569Z,53.97
2023-01-11T16:02:18.018Z,53.65
2023-01-11T16:05:19.386Z,51.51
2023-01-11T16:07:58.664Z,53.12
2023-01-11T16:13:46.675Z,54.52
2023-01-11T16:16:27.114Z,52.04
2023-01-11T16:19:09.063Z,53.98
2023-01-11T16:21:41.918Z,53.53
2023-01-11T16:24:16.440Z,53.47
2023-01-11T16:26:52.589Z,52.92
2023-01-11T16:29:25.850Z,53.47
2023-01-11T16:32:10.707Z,53.74
2023-01-11T16:34:47.212Z,53.17
2023-01-11T16:37:38.931Z,53.98
2023-01-11T16:40:15.112Z,53.17
2023-01-11T16:42:48.587Z,53.74
2023-01-11T16:45:22.000Z,54.60
2023-01-11T16:48:07.245Z,54.61
2023-01-11T16:50:37.967Z,55.28
2023-01-11T16:53:13.934Z,54.27
2023-01-11T16:56:05.384Z,53.35
2023-01-11T16:58:38.641Z,53.64
2023-01-11T17:01:14.706Z,54.95
2023-01-11T17:03:56.058Z,53.50
2023-01-11T17:06:27.322Z,54.13
2023-01-11T17:09:00.136Z,56.48
2023-01-11T17:11:46.422Z,56.68
2023-01-11T17:14:31.502Z,57.50
2023-01-11T17:17:05.227Z,56.60
2023-01-11T17:19:40.932Z,57.18
2023-01-11T17:22:17.255Z,53.29
2023-01-11T17:24:59.297Z,56.10
2023-01-11T17:27:44.641Z,57.34
2023-01-11T17:30:20.805Z,59.48
2023-01-11T17:32:59.474Z,58.18
2023-01-11T17:35:38.730Z,59.49
2023-01-11T17:38:12.216Z,61.16
2023-01-11T17:40:45.368Z,64.76
2023-01-11T17:43:43.311Z,66.11
2023-01-11T17:46:26.501Z,67.69
2023-01-11T17:48:59.228Z,62.95
2023-01-11T17:51:35.129Z,63.36
2023-01-11T17:54:05.686Z,70.38
2023-01-11T17:56:38.799Z,65.60
2023-01-11T17:59:24.396Z,67.00
2023-01-11T18:02:02.349Z,67.68
2023-01-11T18:04:33.401Z,69.33
2023-01-11T18:07:11.160Z,69.54
2023-01-11T18:09:49.913Z,72.61
2023-01-11T18:12:23.359Z,71.94
2023-01-11T18:14:59.575Z,76.61
2023-01-11T18:17:40.149Z,66.04
2023-01-11T18:20:19.255Z,80.70
2023-01-11T18:23:00.222Z,68.91
2023-01-11T18:25:35.295Z,73.92
2023-01-11T18:28:24.725Z,69.64
2023-01-11T18:30:59.348Z,72.67
2023-01-11T18:33:35.201Z,71.70
2023-01-11T18:36:07.593Z,80.65
2023-01-11T18:38:38.119Z,81.54
2023-01-11T18:41:28.411Z,73.98
2023-01-11T18:43:59.055Z,83.63
2023-01-11T18:46:29.696Z,80.08
2023-01-11T18:49:00.231Z,90.45
2023-01-11T18:51:44.123Z,83.82
2023-01-11T18:54:17.113Z,87.40
2023-01-11T18:56:48.668Z,100.00
2023-01-11T18:59:19.209Z,77.28
2023-01-11T19:01:59.072Z,87.26
2023-01-11T19:04:21.938Z,88.52
2023-01-11T19:06:52.543Z,79.23
2023-01-11T19:09:23.161Z,85.59
2023-01-11T19:11:53.730Z,81.20
2023-01-11T19:14:24.327Z,84.98
2023-01-11T19:16:54.865Z,83.46
2023-01-11T19:19:26.550Z,87.74
2023-01-11T19:21:57.146Z,95.44
2023-01-11T19:24:28.675Z,82.85
2023-01-11T19:27:00.747Z,89.07
2023-01-11T19:29:32.395Z,100.00
2023-01-11T19:32:03.531Z,100.00
2023-01-11T19:34:37.438Z,100.00
2023-01-11T19:37:09.167Z,100.00
2023-01-11T19:39:41.105Z,100.00
2023-01-11T19:42:11.627Z,100.00
2023-01-11T19:44:42.160Z,100.00
2023-01-11T19:47:16.078Z,100.00
2023-01-11T19:49:47.690Z,100.00
2023-01-11T19:52:19.787Z,100.00
2023-01-11T19:54:51.358Z,100.00
2023-01-11T19:57:21.866Z,100.00
2023-01-11T19:59:52.597Z,100.00
2023-01-11T20:02:23.780Z,100.00
2023-01-11T20:04:54.794Z,100.00
2023-01-11T20:07:25.440Z,100.00
2023-01-11T20:09:57.080Z,100.00
2023-01-11T20:12:27.609Z,100.00
2023-01-11T20:14:59.699Z,100.00
2023-01-11T20:17:31.409Z,100.00
2023-01-11T20:20:02.000Z,100.00
2023-01-11T20:22:32.534Z,100.00
2023-01-11T20:25:03.097Z,100.00
2023-01-11T20:27:34.214Z,100.00
2023-01-11T20:30:04.868Z,100.00
2023-01-11T20:32:42.045Z,100.00
2023-01-11T20:35:09.636Z,100.00
2023-01-11T20:37:40.182Z,100.00
2023-01-11T20:40:14.145Z,100.00
2023-01-11T20:42:43.829Z,100.00
2023-01-11T20:45:14.376Z,100.00
2023-01-11T20:47:44.924Z,100.00
2023-01-11T20:50:16.777Z,100.00
2023-01-11T20:52:48.807Z,100.00
2023-01-11T20:55:19.585Z,100.00
2023-01-11T20:57:51.603Z,100.00
2023-01-11T21:00:23.463Z,100.00
2023-01-11T21:02:54.152Z,100.00
2023-01-11T21:05:26.111Z,100.00
2023-01-11T21:07:56.645Z,100.00
2023-01-11T21:10:27.176Z,100.00
2023-01-11T21:15:28.299Z,100.00
2023-01-11T21:17:58.839Z,100.00
2023-01-11T21:20:29.387Z,100.00
2023-01-11T21:22:59.945Z,100.00
2023-01-11T21:25:30.477Z,100.00
2023-01-11T21:28:00.984Z,100.00
2023-01-11T21:30:31.545Z,100.00
2023-01-11T21:33:02.090Z,100.00
2023-01-11T21:35:34.320Z,100.00
2023-01-11T21:38:04.869Z,100.00
2023-01-11T21:40:35.432Z,100.00
2023-01-11T21:43:07.550Z,100.00
2023-01-11T21:45:38.129Z,100.00
2023-01-11T21:48:08.691Z,100.00
2023-01-11T21:50:39.321Z,99.24
2023-01-11T21:53:10.865Z,100.00
2023-01-11T21:55:41.816Z,100.00
2023-01-11T21:58:12.355Z,100.00
2023-01-11T22:00:42.955Z,100.00
2023-01-11T22:03:13.829Z,100.00
2023-01-11T22:05:44.385Z,100.00
2023-01-11T22:08:15.263Z,100.00
2023-01-11T22:10:49.730Z,100.00
2023-01-11T22:13:20.280Z,100.00
2023-01-11T22:15:52.474Z,100.00
2023-01-11T22:18:23.037Z,100.00
2023-01-11T22:20:53.643Z,100.00
2023-01-11T22:23:25.378Z,100.00
2023-01-11T22:25:56.019Z,100.00
2023-01-11T22:28:26.614Z,100.00
2023-01-11T22:30:57.139Z,100.00
2023-01-11T22:33:27.671Z,100.00
2023-01-11T22:35:58.345Z,100.00
2023-01-11T22:38:29.096Z,100.00
2023-01-11T22:41:01.385Z,100.00
2023-01-11T22:43:32.980Z,100.00
2023-01-11T22:46:03.879Z,100.00
2023-01-11T22:48:34.503Z,100.00
2023-01-11T22:51:07.515Z,100.00
2023-01-11T22:53:41.979Z,100.00
2023-01-11T22:56:13.794Z,100.00
2023-01-11T22:58:44.363Z,100.00
2023-01-11T23:01:20.398Z,100.00
2023-01-11T23:03:51.981Z,100.00
2023-01-11T23:06:25.706Z,100.00
2023-01-11T23:08:58.530Z,100.00
2023-01-11T23:11:49.075Z,100.00
2023-01-11T23:14:21.102Z,100.00
2023-01-11T23:16:51.679Z,100.00
2023-01-11T23:19:23.343Z,100.00
2023-01-11T23:21:55.366Z,100.00
2023-01-11T23:24:25.968Z,100.00
2023-01-11T23:26:56.616Z,100.00
2023-01-11T23:29:27.154Z,100.00
2023-01-11T23:31:57.944Z,100.00
2023-01-11T23:34:28.992Z,99.57
2023-01-11T23:37:00.528Z,100.00
2023-01-11T23:39:32.568Z,100.00
2023-01-11T23:42:20.975Z,100.00
2023-01-11T23:44:51.471Z,100.00
2023-01-11T23:47:24.355Z,100.00
2023-01-11T23:50:02.892Z,100.00
2023-01-11T23:52:34.109Z,100.00
2023-01-11T23:55:04.757Z,100.00
2023-01-11T23:57:35.324Z,100.00
